createdAt,value
2018-11-29T00:00:45.822Z,1011.35
2018-11-29T00:01:45.816Z,1011.31
2018-11-29T00:02:45.814Z,1011.25
2018-11-29T00:03:45.800Z,1011.31
2018-11-29T00:04:45.829Z,1011.22
2018-11-29T00:05:45.800Z,1011.22
2018-11-29T00:06:45.869Z,1011.23
2018-11-29T00:07:45.748Z,1011.19
2018-11-29T00:08:45.873Z,1011.21
2018-11-29T00:09:45.741Z,1011.26
2018-11-29T00:10:45.727Z,1011.23
2018-11-29T00:11:45.702Z,1011.21
2018-11-29T00:12:45.727Z,1011.26
2018-11-29T00:13:45.703Z,1011.26
2018-11-29T00:14:45.709Z,1011.26
2018-11-29T00:15:45.657Z,1011.32
2018-11-29T00:16:45.694Z,1011.23
2018-11-29T00:17:45.650Z,1011.22
2018-11-29T00:18:45.620Z,1011.19
2018-11-29T00:19:45.627Z,1011.16
2018-11-29T00:20:45.704Z,1011.17
2018-11-29T00:21:45.615Z,1011.11
2018-11-29T00:22:45.592Z,1011.13
2018-11-29T00:23:45.563Z,1011.12
2018-11-29T00:24:45.583Z,1011.18
2018-11-29T00:25:45.555Z,1011.17
2018-11-29T00:26:45.605Z,1011.25
2018-11-29T00:27:45.542Z,1011.25
2018-11-29T00:28:45.516Z,1011.25
2018-11-29T00:29:45.506Z,1011.21
2018-11-29T00:30:45.490Z,1011.17
2018-11-29T00:31:45.524Z,1011.19
2018-11-29T00:32:45.481Z,1011.21
2018-11-29T00:33:45.471Z,1011.20
2018-11-29T00:34:45.591Z,1011.23
2018-11-29T00:35:45.445Z,1011.24
2018-11-29T00:36:45.421Z,1011.21
2018-11-29T00:37:45.417Z,1011.24
2018-11-29T00:38:45.460Z,1011.20
2018-11-29T00:39:45.411Z,1011.21
2018-11-29T00:40:45.426Z,1011.19
2018-11-29T00:41:45.382Z,1011.20
2018-11-29T00:42:45.366Z,1011.22
2018-11-29T00:43:45.366Z,1011.26
2018-11-29T00:44:45.333Z,1011.23
2018-11-29T00:45:45.340Z,1011.27
2018-11-29T00:46:45.350Z,1011.29
2018-11-29T00:47:45.297Z,1011.27
2018-11-29T00:48:45.298Z,1011.27
2018-11-29T00:49:45.287Z,1011.23
2018-11-29T00:50:45.271Z,1011.22
2018-11-29T00:51:45.261Z,1011.22
2018-11-29T00:52:45.244Z,1011.25
2018-11-29T00:53:45.266Z,1011.26
2018-11-29T00:54:45.217Z,1011.30
2018-11-29T00:55:45.220Z,1011.28
2018-11-29T00:56:45.194Z,1011.28
2018-11-29T00:57:45.281Z,1011.29
2018-11-29T00:58:45.203Z,1011.26
2018-11-29T00:59:45.164Z,1011.24
2018-11-29T01:00:45.224Z,1011.23
2018-11-29T01:01:45.135Z,1011.24
2018-11-29T01:02:45.178Z,1011.23
2018-11-29T01:03:45.120Z,1011.26
2018-11-29T01:04:49.759Z,1011.29
2018-11-29T01:05:45.100Z,1011.29
2018-11-29T01:06:45.124Z,1011.32
2018-11-29T01:07:45.088Z,1011.35
2018-11-29T01:08:45.077Z,1011.28
2018-11-29T01:09:45.092Z,1011.29
2018-11-29T01:10:45.149Z,1011.27
2018-11-29T01:11:45.048Z,1011.28
2018-11-29T01:12:45.017Z,1011.31
2018-11-29T01:13:45.018Z,1011.29
2018-11-29T01:14:45.002Z,1011.24
2018-11-29T01:15:45.034Z,1011.24
2018-11-29T01:16:44.985Z,1011.27
2018-11-29T01:17:44.982Z,1011.30
2018-11-29T01:18:44.997Z,1011.30
2018-11-29T01:19:44.996Z,1011.33
2018-11-29T01:20:44.968Z,1011.29
2018-11-29T01:21:44.963Z,1011.35
2018-11-29T01:22:44.943Z,1011.29
2018-11-29T01:23:44.899Z,1011.31
2018-11-29T01:24:44.925Z,1011.33
2018-11-29T01:25:44.965Z,1011.33
2018-11-29T01:26:44.872Z,1011.30
2018-11-29T01:27:44.848Z,1011.29
2018-11-29T01:28:44.906Z,1011.23
2018-11-29T01:29:44.899Z,1011.24
2018-11-29T01:30:44.888Z,1011.25
2018-11-29T01:31:44.819Z,1011.22
2018-11-29T01:32:44.832Z,1011.21
2018-11-29T01:33:44.794Z,1011.22
2018-11-29T01:34:44.874Z,1011.25
2018-11-29T01:35:44.787Z,1011.29
2018-11-29T01:36:44.762Z,1011.30
2018-11-29T01:37:44.734Z,1011.28
2018-11-29T01:38:44.749Z,1011.33
2018-11-29T01:39:44.730Z,1011.27
2018-11-29T01:40:44.712Z,1011.24
2018-11-29T01:41:44.699Z,1011.20
2018-11-29T01:42:44.708Z,1011.24
2018-11-29T01:43:44.669Z,1011.27
2018-11-29T01:44:44.660Z,1011.29
2018-11-29T01:45:44.667Z,1011.28
2018-11-29T01:46:44.685Z,1011.30
2018-11-29T01:47:44.634Z,1011.31
2018-11-29T01:48:44.625Z,1011.33
2018-11-29T01:49:44.616Z,1011.32
2018-11-29T01:50:44.630Z,1011.29
2018-11-29T01:51:44.607Z,1011.35
2018-11-29T01:52:44.581Z,1011.26
2018-11-29T01:53:44.566Z,1011.25
2018-11-29T01:54:44.578Z,1011.27
2018-11-29T01:55:44.547Z,1011.24
2018-11-29T01:56:44.554Z,1011.24
2018-11-29T01:57:44.552Z,1011.22
2018-11-29T01:58:44.501Z,1011.24
2018-11-29T01:59:44.503Z,1011.26
2018-11-29T02:00:44.573Z,1011.29
2018-11-29T02:01:44.502Z,1011.23
2018-11-29T02:02:44.501Z,1011.27
2018-11-29T02:03:44.465Z,1011.22
2018-11-29T02:04:44.513Z,1011.19
2018-11-29T02:05:44.461Z,1011.23
2018-11-29T02:06:44.443Z,1011.20
2018-11-29T02:07:44.404Z,1011.22
2018-11-29T02:08:44.418Z,1011.18
2018-11-29T02:09:44.394Z,1011.15
2018-11-29T02:10:44.364Z,1011.21
2018-11-29T02:11:44.442Z,1011.17
2018-11-29T02:12:44.346Z,1011.22
2018-11-29T02:13:44.362Z,1011.19
2018-11-29T02:14:44.326Z,1011.17
2018-11-29T02:15:44.316Z,1011.20
2018-11-29T02:16:44.308Z,1011.19
2018-11-29T02:17:44.330Z,1011.19
2018-11-29T02:18:44.332Z,1011.23
2018-11-29T02:19:44.317Z,1011.22
2018-11-29T02:20:44.254Z,1011.21
2018-11-29T02:21:44.255Z,1011.19
2018-11-29T02:22:44.245Z,1011.18
2018-11-29T02:23:44.247Z,1011.15
2018-11-29T02:24:44.250Z,1011.19
2018-11-29T02:25:44.193Z,1011.16
2018-11-29T02:26:44.204Z,1011.16
2018-11-29T02:27:44.192Z,1011.12
2018-11-29T02:28:44.164Z,1011.08
2018-11-29T02:29:44.177Z,1011.09
2018-11-29T02:30:44.153Z,1011.12
2018-11-29T02:31:44.126Z,1011.10
2018-11-29T02:32:44.131Z,1011.11
2018-11-29T02:33:44.106Z,1011.10
2018-11-29T02:34:44.145Z,1011.09
2018-11-29T02:35:44.098Z,1011.09
2018-11-29T02:36:44.085Z,1011.07
2018-11-29T02:37:44.129Z,1011.08
2018-11-29T02:38:44.070Z,1011.04
2018-11-29T02:39:44.109Z,1011.06
2018-11-29T02:40:44.062Z,1011.02
2018-11-29T02:41:44.085Z,1011.05
2018-11-29T02:42:44.099Z,1011.06
2018-11-29T02:43:43.998Z,1011.01
2018-11-29T02:44:43.995Z,1010.96
2018-11-29T02:45:44.065Z,1010.94
2018-11-29T02:46:43.961Z,1010.93
2018-11-29T02:47:44.058Z,1010.90
2018-11-29T02:48:43.940Z,1010.94
2018-11-29T02:49:43.925Z,1010.95
2018-11-29T02:50:43.961Z,1010.94
2018-11-29T02:51:43.932Z,1010.95
2018-11-29T02:52:43.924Z,1010.92
2018-11-29T02:53:43.891Z,1010.90
2018-11-29T02:54:43.867Z,1010.89
2018-11-29T02:55:43.869Z,1010.91
2018-11-29T02:56:43.883Z,1010.90
2018-11-29T02:57:43.856Z,1010.84
2018-11-29T02:58:43.831Z,1010.86
2018-11-29T02:59:43.871Z,1010.84
2018-11-29T03:00:43.864Z,1010.84
2018-11-29T03:01:43.789Z,1010.77
2018-11-29T03:02:43.848Z,1010.76
2018-11-29T03:03:43.797Z,1010.74
2018-11-29T03:04:43.813Z,1010.73
2018-11-29T03:05:43.755Z,1010.72
2018-11-29T03:06:43.808Z,1010.69
2018-11-29T03:07:43.735Z,1010.68
2018-11-29T03:08:43.766Z,1010.68
2018-11-29T03:09:43.711Z,1010.65
2018-11-29T03:10:43.760Z,1010.70
2018-11-29T03:11:43.685Z,1010.70
2018-11-29T03:12:43.776Z,1010.68
2018-11-29T03:13:43.655Z,1010.68
2018-11-29T03:14:43.644Z,1010.68
2018-11-29T03:15:43.663Z,1010.67
2018-11-29T03:16:43.663Z,1010.68
2018-11-29T03:17:43.617Z,1010.68
2018-11-29T03:18:43.675Z,1010.71
2018-11-29T03:19:43.587Z,1010.73
2018-11-29T03:20:43.647Z,1010.72
2018-11-29T03:21:43.611Z,1010.75
2018-11-29T03:22:43.562Z,1010.76
2018-11-29T03:23:43.573Z,1010.75
2018-11-29T03:24:43.560Z,1010.74
2018-11-29T03:25:43.537Z,1010.73
2018-11-29T03:26:43.513Z,1010.74
2018-11-29T03:27:43.532Z,1010.74
2018-11-29T03:28:43.505Z,1010.72
2018-11-29T03:29:43.511Z,1010.69
2018-11-29T03:30:43.467Z,1010.72
2018-11-29T03:31:43.482Z,1010.76
2018-11-29T03:32:43.486Z,1010.79
2018-11-29T03:33:43.448Z,1010.85
2018-11-29T03:34:43.417Z,1010.82
2018-11-29T03:35:44.643Z,1010.82
2018-11-29T03:36:43.393Z,1010.81
2018-11-29T03:37:43.412Z,1010.78
2018-11-29T03:38:43.397Z,1010.76
2018-11-29T03:39:43.387Z,1010.79
2018-11-29T03:40:43.434Z,1010.78
2018-11-29T03:41:43.350Z,1010.74
2018-11-29T03:42:43.364Z,1010.76
2018-11-29T03:43:43.328Z,1010.73
2018-11-29T03:44:43.334Z,1010.79
2018-11-29T03:45:43.304Z,1010.78
2018-11-29T03:46:43.279Z,1010.77
2018-11-29T03:47:43.272Z,1010.75
2018-11-29T03:48:43.294Z,1010.74
2018-11-29T03:49:43.249Z,1010.79
2018-11-29T03:50:43.242Z,1010.80
2018-11-29T03:51:43.247Z,1010.79
2018-11-29T03:52:43.237Z,1010.81
2018-11-29T03:53:43.211Z,1010.77
2018-11-29T03:54:43.202Z,1010.73
2018-11-29T03:55:43.176Z,1010.73
2018-11-29T03:56:43.175Z,1010.72
2018-11-29T03:57:43.189Z,1010.72
2018-11-29T03:58:43.158Z,1010.73
2018-11-29T03:59:43.200Z,1010.73
2018-11-29T04:00:43.135Z,1010.75
2018-11-29T04:01:43.123Z,1010.79
2018-11-29T04:02:43.140Z,1010.79
2018-11-29T04:03:43.109Z,1010.78
2018-11-29T04:04:43.216Z,1010.77
2018-11-29T04:05:43.067Z,1010.73
2018-11-29T04:06:43.064Z,1010.78
2018-11-29T04:07:43.046Z,1010.74
2018-11-29T04:08:43.074Z,1010.74
2018-11-29T04:09:43.048Z,1010.80
2018-11-29T04:10:43.031Z,1010.77
2018-11-29T04:11:43.000Z,1010.71
2018-11-29T04:12:42.988Z,1010.68
2018-11-29T04:13:42.992Z,1010.70
2018-11-29T04:14:43.065Z,1010.71
2018-11-29T04:15:42.971Z,1010.70
2018-11-29T04:16:42.968Z,1010.71
2018-11-29T04:17:42.980Z,1010.67
2018-11-29T04:18:42.925Z,1010.70
2018-11-29T04:19:42.954Z,1010.64
2018-11-29T04:20:42.900Z,1010.70
2018-11-29T04:21:42.938Z,1010.70
2018-11-29T04:22:42.926Z,1010.69
2018-11-29T04:23:42.949Z,1010.75
2018-11-29T04:24:42.863Z,1010.73
2018-11-29T04:25:42.881Z,1010.66
2018-11-29T04:26:42.866Z,1010.69
2018-11-29T04:27:42.844Z,1010.68
2018-11-29T04:28:42.859Z,1010.64
2018-11-29T04:29:42.827Z,1010.59
2018-11-29T04:30:42.790Z,1010.57
2018-11-29T04:31:42.831Z,1010.55
2018-11-29T04:32:42.797Z,1010.55
2018-11-29T04:33:42.790Z,1010.50
2018-11-29T04:34:42.801Z,1010.48
2018-11-29T04:35:42.730Z,1010.46
2018-11-29T04:36:42.733Z,1010.45
2018-11-29T04:37:42.736Z,1010.44
2018-11-29T04:38:42.701Z,1010.44
2018-11-29T04:39:42.722Z,1010.42
2018-11-29T04:40:42.685Z,1010.42
2018-11-29T04:41:42.683Z,1010.39
2018-11-29T04:42:42.681Z,1010.36
2018-11-29T04:43:42.654Z,1010.37
2018-11-29T04:44:42.677Z,1010.34
2018-11-29T04:45:42.658Z,1010.34
2018-11-29T04:46:42.679Z,1010.29
2018-11-29T04:47:42.677Z,1010.32
2018-11-29T04:48:42.613Z,1010.28
2018-11-29T04:49:42.653Z,1010.26
2018-11-29T04:50:42.596Z,1010.27
2018-11-29T04:51:42.607Z,1010.27
2018-11-29T04:52:42.615Z,1010.25
2018-11-29T04:53:42.539Z,1010.22
2018-11-29T04:54:42.532Z,1010.22
2018-11-29T04:55:42.505Z,1010.19
2018-11-29T04:56:42.534Z,1010.24
2018-11-29T04:57:42.493Z,1010.19
2018-11-29T04:58:42.476Z,1010.25
2018-11-29T04:59:42.471Z,1010.20
2018-11-29T05:00:42.451Z,1010.19
2018-11-29T05:01:42.470Z,1010.18
2018-11-29T05:02:42.465Z,1010.24
2018-11-29T05:03:42.539Z,1010.19
2018-11-29T05:04:42.454Z,1010.23
2018-11-29T05:05:42.397Z,1010.18
2018-11-29T05:06:42.392Z,1010.20
2018-11-29T05:07:42.403Z,1010.21
2018-11-29T05:08:42.381Z,1010.19
2018-11-29T05:09:42.360Z,1010.19
2018-11-29T05:10:42.341Z,1010.17
2018-11-29T05:11:42.362Z,1010.21
2018-11-29T05:12:42.329Z,1010.18
2018-11-29T05:13:42.343Z,1010.15
2018-11-29T05:14:42.338Z,1010.14
2018-11-29T05:15:42.300Z,1010.09
2018-11-29T05:16:42.269Z,1010.11
2018-11-29T05:17:42.272Z,1010.10
2018-11-29T05:18:42.258Z,1010.07
2018-11-29T05:19:42.271Z,1010.05
2018-11-29T05:20:42.226Z,1010.07
2018-11-29T05:21:42.235Z,1010.09
2018-11-29T05:22:42.205Z,1010.05
2018-11-29T05:23:42.192Z,1010.05
2018-11-29T05:24:42.197Z,1010.03
2018-11-29T05:25:42.177Z,1010.04
2018-11-29T05:26:42.153Z,1009.94
2018-11-29T05:27:42.169Z,1009.93
2018-11-29T05:28:42.142Z,1009.88
2018-11-29T05:29:42.130Z,1009.90
2018-11-29T05:30:42.133Z,1009.87
2018-11-29T05:31:42.128Z,1009.87
2018-11-29T05:32:42.144Z,1009.81
2018-11-29T05:33:42.085Z,1009.80
2018-11-29T05:34:42.190Z,1009.84
2018-11-29T05:35:42.091Z,1009.85
2018-11-29T05:36:42.083Z,1009.83
2018-11-29T05:37:42.069Z,1009.78
2018-11-29T05:38:42.027Z,1009.82
2018-11-29T05:39:42.023Z,1009.81
2018-11-29T05:40:42.025Z,1009.85
2018-11-29T05:41:42.007Z,1009.88
2018-11-29T05:42:42.022Z,1009.93
2018-11-29T05:43:41.979Z,1009.92
2018-11-29T05:44:41.963Z,1009.95
2018-11-29T05:45:41.983Z,1009.92
2018-11-29T05:46:42.677Z,1009.95
2018-11-29T05:47:41.929Z,1009.99
2018-11-29T05:48:41.925Z,1009.97
2018-11-29T05:49:41.902Z,1010.01
2018-11-29T05:50:41.911Z,1009.95
2018-11-29T05:51:41.876Z,1009.94
2018-11-29T05:52:42.090Z,1009.93
2018-11-29T05:53:41.890Z,1009.94
2018-11-29T05:54:41.882Z,1009.92
2018-11-29T05:55:41.924Z,1009.96
2018-11-29T05:56:41.827Z,1009.93
2018-11-29T05:57:41.820Z,1009.96
2018-11-29T05:58:41.824Z,1009.92
2018-11-29T05:59:41.784Z,1009.92
2018-11-29T06:00:41.856Z,1009.89
2018-11-29T06:01:41.762Z,1009.91
2018-11-29T06:02:41.755Z,1009.94
2018-11-29T06:03:41.741Z,1009.94
2018-11-29T06:04:41.817Z,1009.92
2018-11-29T06:05:41.738Z,1009.89
2018-11-29T06:06:41.721Z,1009.85
2018-11-29T06:07:41.897Z,1009.86
2018-11-29T06:08:41.686Z,1009.84
2018-11-29T06:09:41.713Z,1009.89
2018-11-29T06:10:41.982Z,1009.84
2018-11-29T06:11:41.677Z,1009.95
2018-11-29T06:12:41.648Z,1009.92
2018-11-29T06:13:41.660Z,1009.93
2018-11-29T06:14:41.618Z,1009.87
2018-11-29T06:15:41.708Z,1009.91
2018-11-29T06:16:41.590Z,1009.82
2018-11-29T06:17:41.601Z,1009.88
2018-11-29T06:18:41.573Z,1009.84
2018-11-29T06:19:41.589Z,1009.86
2018-11-29T06:20:41.567Z,1009.82
2018-11-29T06:21:41.558Z,1009.77
2018-11-29T06:22:41.553Z,1009.81
2018-11-29T06:23:41.538Z,1009.81
2018-11-29T06:24:41.514Z,1009.77
2018-11-29T06:25:41.499Z,1009.79
2018-11-29T06:26:41.492Z,1009.80
2018-11-29T06:27:41.509Z,1009.77
2018-11-29T06:28:41.543Z,1009.75
2018-11-29T06:29:41.451Z,1009.73
2018-11-29T06:30:41.499Z,1009.79
2018-11-29T06:31:41.479Z,1009.71
2018-11-29T06:32:41.466Z,1009.74
2018-11-29T06:33:41.465Z,1009.73
2018-11-29T06:34:41.500Z,1009.75
2018-11-29T06:35:41.444Z,1009.71
2018-11-29T06:36:41.385Z,1009.73
2018-11-29T06:37:41.357Z,1009.73
2018-11-29T06:38:41.363Z,1009.71
2018-11-29T06:39:41.432Z,1009.67
2018-11-29T06:40:41.351Z,1009.66
2018-11-29T06:41:41.367Z,1009.67
2018-11-29T06:42:41.430Z,1009.65
2018-11-29T06:43:41.300Z,1009.67
2018-11-29T06:44:41.303Z,1009.62
2018-11-29T06:45:41.286Z,1009.65
2018-11-29T06:46:41.258Z,1009.63
2018-11-29T06:47:41.250Z,1009.63
2018-11-29T06:48:41.278Z,1009.65
2018-11-29T06:49:41.290Z,1009.64
2018-11-29T06:50:41.336Z,1009.62
2018-11-29T06:51:41.214Z,1009.62
2018-11-29T06:52:41.224Z,1009.59
2018-11-29T06:53:41.188Z,1009.55
2018-11-29T06:54:41.249Z,1009.56
2018-11-29T06:55:41.185Z,1009.53
2018-11-29T06:56:41.144Z,1009.51
2018-11-29T06:57:41.131Z,1009.49
2018-11-29T06:58:41.144Z,1009.44
2018-11-29T06:59:41.115Z,1009.38
2018-11-29T07:00:41.123Z,1009.39
2018-11-29T07:01:41.093Z,1009.38
2018-11-29T07:02:41.075Z,1009.36
2018-11-29T07:03:41.089Z,1009.45
2018-11-29T07:04:41.190Z,1009.42
2018-11-29T07:05:41.113Z,1009.41
2018-11-29T07:06:41.071Z,1009.37
2018-11-29T07:07:41.042Z,1009.31
2018-11-29T07:08:41.009Z,1009.31
2018-11-29T07:09:41.006Z,1009.27
2018-11-29T07:10:40.994Z,1009.24
2018-11-29T07:11:40.982Z,1009.24
2018-11-29T07:12:40.965Z,1009.22
2018-11-29T07:13:40.969Z,1009.14
2018-11-29T07:14:40.957Z,1009.21
2018-11-29T07:15:40.967Z,1009.23
2018-11-29T07:16:40.981Z,1009.19
2018-11-29T07:17:40.936Z,1009.20
2018-11-29T07:18:40.915Z,1009.16
2018-11-29T07:19:40.908Z,1009.21
2018-11-29T07:20:40.888Z,1009.20
2018-11-29T07:21:40.924Z,1009.20
2018-11-29T07:22:40.919Z,1009.27
2018-11-29T07:23:40.880Z,1009.28
2018-11-29T07:24:40.874Z,1009.24
2018-11-29T07:25:40.917Z,1009.23
2018-11-29T07:26:40.825Z,1009.26
2018-11-29T07:27:40.830Z,1009.26
2018-11-29T07:28:40.794Z,1009.24
2018-11-29T07:29:40.811Z,1009.17
2018-11-29T07:30:40.851Z,1009.17
2018-11-29T07:31:40.814Z,1009.15
2018-11-29T07:32:40.755Z,1009.12
2018-11-29T07:33:40.739Z,1009.12
2018-11-29T07:34:40.855Z,1009.12
2018-11-29T07:35:40.729Z,1009.10
2018-11-29T07:36:40.716Z,1009.05
2018-11-29T07:37:40.729Z,1009.06
2018-11-29T07:38:40.741Z,1009.02
2018-11-29T07:39:40.766Z,1009.04
2018-11-29T07:40:40.646Z,1008.99
2018-11-29T07:41:40.649Z,1009.09
2018-11-29T07:42:40.647Z,1009.02
2018-11-29T07:43:40.664Z,1009.04
2018-11-29T07:44:40.600Z,1009.00
2018-11-29T07:45:40.598Z,1009.00
2018-11-29T07:46:40.595Z,1008.98
2018-11-29T07:47:40.586Z,1008.98
2018-11-29T07:48:40.570Z,1008.93
2018-11-29T07:49:40.552Z,1008.94
2018-11-29T07:50:40.562Z,1009.01
2018-11-29T07:51:40.532Z,1008.96
2018-11-29T07:52:40.531Z,1008.97
2018-11-29T07:53:40.513Z,1008.97
2018-11-29T07:54:40.487Z,1008.94
2018-11-29T07:55:40.477Z,1008.88
2018-11-29T07:56:40.495Z,1008.88
2018-11-29T07:57:40.474Z,1008.92
2018-11-29T07:58:40.450Z,1008.90
2018-11-29T07:59:40.449Z,1008.92
2018-11-29T08:00:40.639Z,1008.90
2018-11-29T08:01:40.455Z,1008.83
2018-11-29T08:02:40.555Z,1008.83
2018-11-29T08:03:40.389Z,1008.78
2018-11-29T08:04:40.459Z,1008.75
2018-11-29T08:05:40.434Z,1008.70
2018-11-29T08:06:40.373Z,1008.68
2018-11-29T08:07:40.528Z,1008.67
2018-11-29T08:08:40.363Z,1008.66
2018-11-29T08:09:40.356Z,1008.67
2018-11-29T08:10:40.381Z,1008.65
2018-11-29T08:11:40.413Z,1008.69
2018-11-29T08:12:40.314Z,1008.70
2018-11-29T08:13:40.281Z,1008.74
2018-11-29T08:14:40.315Z,1008.78
2018-11-29T08:15:40.262Z,1008.77
2018-11-29T08:16:40.271Z,1008.79
2018-11-29T08:17:40.344Z,1008.78
2018-11-29T08:18:40.336Z,1008.78
2018-11-29T08:19:40.230Z,1008.79
2018-11-29T08:20:40.352Z,1008.79
2018-11-29T08:21:40.188Z,1008.77
2018-11-29T08:22:40.191Z,1008.75
2018-11-29T08:23:40.208Z,1008.83
2018-11-29T08:24:40.174Z,1008.83
2018-11-29T08:25:40.307Z,1008.88
2018-11-29T08:26:40.168Z,1008.83
2018-11-29T08:27:40.351Z,1008.86
2018-11-29T08:28:40.186Z,1008.87
2018-11-29T08:29:40.114Z,1008.87
2018-11-29T08:30:40.134Z,1008.85
2018-11-29T08:31:40.109Z,1008.84
2018-11-29T08:32:40.065Z,1008.84
2018-11-29T08:33:40.071Z,1008.84
2018-11-29T08:34:40.162Z,1008.86
2018-11-29T08:35:40.091Z,1008.90
2018-11-29T08:36:40.078Z,1008.92
2018-11-29T08:37:40.014Z,1008.92
2018-11-29T08:38:40.004Z,1008.89
2018-11-29T08:39:40.001Z,1008.95
2018-11-29T08:40:40.032Z,1008.96
2018-11-29T08:41:40.070Z,1008.97
2018-11-29T08:42:39.974Z,1008.90
2018-11-29T08:43:39.992Z,1008.90
2018-11-29T08:44:40.015Z,1008.91
2018-11-29T08:45:39.950Z,1008.93
2018-11-29T08:46:39.908Z,1008.87
2018-11-29T08:47:39.913Z,1008.88
2018-11-29T08:48:39.891Z,1008.90
2018-11-29T08:49:39.896Z,1008.92
2018-11-29T08:50:39.888Z,1008.95
2018-11-29T08:51:39.871Z,1008.95
2018-11-29T08:52:39.854Z,1008.90
2018-11-29T08:53:39.830Z,1008.95
2018-11-29T08:54:39.836Z,1008.93
2018-11-29T08:55:39.817Z,1008.96
2018-11-29T08:56:39.796Z,1008.97
2018-11-29T08:57:39.790Z,1008.98
2018-11-29T08:58:39.787Z,1009.05
2018-11-29T08:59:39.781Z,1009.09
2018-11-29T09:00:39.764Z,1009.07
2018-11-29T09:01:39.749Z,1009.08
2018-11-29T09:02:39.734Z,1009.11
2018-11-29T09:03:39.783Z,1009.10
2018-11-29T09:04:39.729Z,1009.15
2018-11-29T09:05:39.692Z,1009.20
2018-11-29T09:06:39.700Z,1009.21
2018-11-29T09:07:39.672Z,1009.22
2018-11-29T09:08:39.727Z,1009.25
2018-11-29T09:09:39.651Z,1009.24
2018-11-29T09:10:39.639Z,1009.28
2018-11-29T09:11:39.623Z,1009.25
2018-11-29T09:12:39.615Z,1009.26
2018-11-29T09:13:39.609Z,1009.27
2018-11-29T09:14:39.613Z,1009.21
2018-11-29T09:15:39.611Z,1009.16
2018-11-29T09:16:39.569Z,1009.20
2018-11-29T09:17:39.556Z,1009.24
2018-11-29T09:18:39.571Z,1009.26
2018-11-29T09:19:39.541Z,1009.22
2018-11-29T09:20:39.528Z,1009.33
2018-11-29T09:21:39.532Z,1009.29
2018-11-29T09:22:39.500Z,1009.34
2018-11-29T09:23:39.759Z,1009.34
2018-11-29T09:24:39.485Z,1009.38
2018-11-29T09:25:39.469Z,1009.44
2018-11-29T09:26:39.457Z,1009.41
2018-11-29T09:27:39.470Z,1009.41
2018-11-29T09:28:39.457Z,1009.40
2018-11-29T09:29:39.428Z,1009.36
2018-11-29T09:30:39.427Z,1009.40
2018-11-29T09:31:39.398Z,1009.37
2018-11-29T09:32:39.385Z,1009.36
2018-11-29T09:33:39.396Z,1009.36
2018-11-29T09:34:39.489Z,1009.35
2018-11-29T09:35:39.360Z,1009.30
2018-11-29T09:36:39.371Z,1009.29
2018-11-29T09:37:39.331Z,1009.26
2018-11-29T09:38:39.369Z,1009.23
2018-11-29T09:39:39.311Z,1009.20
2018-11-29T09:40:39.302Z,1009.13
2018-11-29T09:41:39.306Z,1009.16
2018-11-29T09:42:39.363Z,1009.12
2018-11-29T09:43:39.273Z,1009.15
2018-11-29T09:44:39.260Z,1009.20
2018-11-29T09:45:39.245Z,1009.19
2018-11-29T09:46:39.243Z,1009.21
2018-11-29T09:47:39.227Z,1009.21
2018-11-29T09:48:39.209Z,1009.24
2018-11-29T09:49:39.206Z,1009.27
2018-11-29T09:50:39.191Z,1009.21
2018-11-29T09:51:39.170Z,1009.22
2018-11-29T09:52:39.161Z,1009.20
2018-11-29T09:53:39.170Z,1009.14
2018-11-29T09:54:39.162Z,1009.12
2018-11-29T09:55:39.127Z,1009.14
2018-11-29T09:56:39.115Z,1009.12
2018-11-29T09:57:39.198Z,1009.12
2018-11-29T09:58:39.112Z,1008.97
2018-11-29T09:59:39.094Z,1008.99
2018-11-29T10:00:39.100Z,1009.01
2018-11-29T10:01:39.107Z,1008.93
2018-11-29T10:02:39.049Z,1008.94
2018-11-29T10:03:39.037Z,1008.91
2018-11-29T10:04:39.114Z,1008.94
2018-11-29T10:05:39.018Z,1008.98
2018-11-29T10:06:39.017Z,1008.95
2018-11-29T10:07:38.991Z,1008.91
2018-11-29T10:08:39.034Z,1008.96
2018-11-29T10:09:38.978Z,1008.95
2018-11-29T10:10:38.986Z,1008.93
2018-11-29T10:11:38.948Z,1008.94
2018-11-29T10:12:39.063Z,1008.89
2018-11-29T10:13:38.923Z,1008.93
2018-11-29T10:14:38.927Z,1008.84
2018-11-29T10:15:38.923Z,1008.79
2018-11-29T10:16:38.887Z,1008.73
2018-11-29T10:17:38.880Z,1008.78
2018-11-29T10:18:38.864Z,1008.72
2018-11-29T10:19:38.886Z,1008.70
2018-11-29T10:20:38.870Z,1008.65
2018-11-29T10:21:38.844Z,1008.66
2018-11-29T10:22:38.823Z,1008.68
2018-11-29T10:23:38.925Z,1008.68
2018-11-29T10:24:38.796Z,1008.69
2018-11-29T10:25:38.799Z,1008.64
2018-11-29T10:26:38.803Z,1008.58
2018-11-29T10:27:38.769Z,1008.58
2018-11-29T10:28:38.751Z,1008.44
2018-11-29T10:29:38.759Z,1008.34
2018-11-29T10:30:38.735Z,1008.22
2018-11-29T10:31:38.719Z,1008.21
2018-11-29T10:32:38.723Z,1008.18
2018-11-29T10:33:38.695Z,1008.15
2018-11-29T10:34:38.751Z,1008.16
2018-11-29T10:35:38.680Z,1008.22
2018-11-29T10:36:38.660Z,1008.26
2018-11-29T10:37:38.648Z,1008.23
2018-11-29T10:38:38.653Z,1008.31
2018-11-29T10:39:38.628Z,1008.21
2018-11-29T10:40:38.621Z,1008.26
2018-11-29T10:41:38.611Z,1008.19
2018-11-29T10:42:38.655Z,1008.11
2018-11-29T10:43:38.580Z,1008.01
2018-11-29T10:44:38.577Z,1008.01
2018-11-29T10:45:38.590Z,1008.00
2018-11-29T10:46:38.550Z,1007.93
2018-11-29T10:47:38.548Z,1007.93
2018-11-29T10:48:38.525Z,1007.83
2018-11-29T10:49:38.512Z,1007.82
2018-11-29T10:50:38.507Z,1007.73
2018-11-29T10:51:38.524Z,1007.75
2018-11-29T10:52:38.480Z,1007.87
2018-11-29T10:53:38.466Z,1007.82
2018-11-29T10:54:38.458Z,1007.84
2018-11-29T10:55:38.450Z,1007.79
2018-11-29T10:56:38.436Z,1007.71
2018-11-29T10:57:38.454Z,1007.63
2018-11-29T10:58:38.418Z,1007.53
2018-11-29T10:59:38.399Z,1007.59
2018-11-29T11:00:38.409Z,1007.70
2018-11-29T11:01:38.376Z,1008.14
2018-11-29T11:02:38.365Z,1008.40
2018-11-29T11:03:38.352Z,1008.66
2018-11-29T11:04:38.364Z,1008.65
2018-11-29T11:05:38.349Z,1008.59
2018-11-29T11:06:38.345Z,1008.70
2018-11-29T11:07:38.826Z,1008.83
2018-11-29T11:08:38.298Z,1008.86
2018-11-29T11:09:38.294Z,1008.69
2018-11-29T11:10:38.345Z,1008.55
2018-11-29T11:11:38.289Z,1008.69
2018-11-29T11:12:38.249Z,1008.77
2018-11-29T11:13:38.263Z,1008.73
2018-11-29T11:14:38.272Z,1008.52
2018-11-29T11:15:38.233Z,1008.39
2018-11-29T11:16:38.215Z,1008.35
2018-11-29T11:17:38.201Z,1008.29
2018-11-29T11:18:38.182Z,1008.09
2018-11-29T11:19:38.282Z,1008.14
2018-11-29T11:20:38.216Z,1008.21
2018-11-29T11:21:38.159Z,1008.15
2018-11-29T11:22:38.148Z,1008.23
2018-11-29T11:23:38.149Z,1008.21
2018-11-29T11:24:38.203Z,1008.26
2018-11-29T11:25:38.108Z,1008.29
2018-11-29T11:26:38.117Z,1008.42
2018-11-29T11:27:38.104Z,1008.59
2018-11-29T11:28:38.067Z,1008.51
2018-11-29T11:29:38.090Z,1008.36
2018-11-29T11:30:38.055Z,1008.13
2018-11-29T11:31:38.060Z,1007.93
2018-11-29T11:32:38.038Z,1007.83
2018-11-29T11:33:38.009Z,1007.68
2018-11-29T11:34:38.029Z,1007.74
2018-11-29T11:35:37.996Z,1007.90
2018-11-29T11:36:37.981Z,1007.97
2018-11-29T11:37:37.991Z,1008.14
2018-11-29T11:38:37.959Z,1008.27
2018-11-29T11:39:38.024Z,1008.23
2018-11-29T11:40:37.940Z,1008.09
2018-11-29T11:41:38.063Z,1008.08
2018-11-29T11:42:37.921Z,1008.10
2018-11-29T11:43:37.914Z,1008.11
2018-11-29T11:44:37.904Z,1008.02
2018-11-29T11:45:38.039Z,1007.97
2018-11-29T11:46:37.898Z,1007.92
2018-11-29T11:47:37.959Z,1007.77
2018-11-29T11:48:37.871Z,1007.77
2018-11-29T11:49:37.862Z,1007.85
2018-11-29T11:50:37.910Z,1007.79
2018-11-29T11:51:37.879Z,1007.72
2018-11-29T11:52:37.815Z,1007.77
2018-11-29T11:53:37.828Z,1007.64
2018-11-29T11:54:37.801Z,1007.71
2018-11-29T11:55:37.771Z,1007.87
2018-11-29T11:56:37.780Z,1007.90
2018-11-29T11:57:37.776Z,1007.94
2018-11-29T11:58:37.729Z,1007.87
2018-11-29T11:59:37.725Z,1007.82
2018-11-29T12:00:37.731Z,1007.77
2018-11-29T12:01:37.820Z,1007.64
2018-11-29T12:02:37.799Z,1007.68
2018-11-29T12:03:37.773Z,1007.67
2018-11-29T12:04:37.774Z,1007.82
2018-11-29T12:05:37.790Z,1007.84